createdAt,value
2023-05-01T00:01:32.204Z,15.10
2023-05-01T00:03:59.070Z,15.10
2023-05-01T00:06:26.162Z,15.10
2023-05-01T00:08:52.799Z,15.10
2023-05-01T00:11:19.478Z,15.00
2023-05-01T00:13:46.414Z,15.10
2023-05-01T00:16:13.371Z,15.00
2023-05-01T00:18:40.234Z,15.10
2023-05-01T00:21:06.846Z,15.00
2023-05-01T00:23:33.573Z,15.00
2023-05-01T00:26:00.242Z,15.00
2023-05-01T00:28:26.886Z,15.10
2023-05-01T00:30:53.615Z,15.00
2023-05-01T00:33:20.671Z,14.90
2023-05-01T00:35:47.696Z,15.00
2023-05-01T00:38:14.343Z,15.00
2023-05-01T00:40:47.189Z,14.90
2023-05-01T00:43:14.011Z,14.90
2023-05-01T00:45:44.236Z,14.90
2023-05-01T00:48:11.264Z,14.90
2023-05-01T00:50:38.498Z,14.90
2023-05-01T00:53:05.337Z,14.90
2023-05-01T00:55:33.186Z,14.90
2023-05-01T00:58:01.943Z,14.80
2023-05-01T01:00:29.538Z,14.80
2023-05-01T01:02:56.656Z,14.80
2023-05-01T01:05:28.071Z,14.80
2023-05-01T01:08:16.793Z,14.80
2023-05-01T01:10:55.554Z,14.80
2023-05-01T01:13:32.732Z,14.70
2023-05-01T01:16:27.852Z,14.70
2023-05-01T01:19:33.234Z,14.70
2023-05-01T01:22:14.508Z,14.70
2023-05-01T01:25:15.444Z,14.70
2023-05-01T01:27:58.425Z,14.70
2023-05-01T01:30:42.080Z,14.70
2023-05-01T01:33:36.653Z,14.70
2023-05-01T01:36:08.057Z,14.70
2023-05-01T01:38:42.229Z,14.70
2023-05-01T01:41:23.579Z,14.70
2023-05-01T01:44:02.286Z,14.70
2023-05-01T01:46:30.883Z,14.70
2023-05-01T01:48:58.176Z,14.80
2023-05-01T01:51:27.218Z,14.80
2023-05-01T01:53:58.510Z,14.70
2023-05-01T01:56:27.877Z,14.80
2023-05-01T01:58:55.757Z,14.70
2023-05-01T02:01:24.290Z,14.70
2023-05-01T02:03:53.069Z,14.70
2023-05-01T02:06:21.526Z,14.70
2023-05-01T02:08:49.738Z,14.70
2023-05-01T02:11:20.976Z,14.70
2023-05-01T02:13:50.407Z,14.70
2023-05-01T02:16:17.901Z,14.70
2023-05-01T02:18:46.562Z,14.60
2023-05-01T02:21:14.627Z,14.60
2023-05-01T02:23:41.858Z,14.50
2023-05-01T02:26:16.919Z,14.40
2023-05-01T02:28:44.046Z,14.40
2023-05-01T02:31:11.017Z,14.40
2023-05-01T02:33:37.684Z,14.40
2023-05-01T02:36:05.133Z,14.40
2023-05-01T02:38:33.098Z,14.40
2023-05-01T02:41:01.987Z,14.40
2023-05-01T02:43:32.223Z,14.40
2023-05-01T02:46:01.291Z,14.40
2023-05-01T02:48:30.571Z,14.50
2023-05-01T02:50:58.188Z,14.40
2023-05-01T02:53:24.873Z,14.40
2023-05-01T02:55:57.050Z,14.30
2023-05-01T02:58:23.811Z,14.30
2023-05-01T03:00:50.761Z,14.40
2023-05-01T03:03:19.125Z,14.30
2023-05-01T03:05:45.858Z,14.30
2023-05-01T03:08:12.731Z,14.30
2023-05-01T03:10:43.128Z,14.40
2023-05-01T03:13:11.415Z,14.40
2023-05-01T03:15:38.665Z,14.40
2023-05-01T03:18:05.717Z,14.40
2023-05-01T03:20:32.506Z,14.40
2023-05-01T03:22:59.259Z,14.40
2023-05-01T03:25:26.118Z,14.30
2023-05-01T03:27:54.934Z,14.30
2023-05-01T03:30:22.724Z,14.30
2023-05-01T03:32:51.615Z,14.40
2023-05-01T03:35:23.822Z,14.40
2023-05-01T03:37:50.647Z,14.40
2023-05-01T03:40:37.336Z,14.40
2023-05-01T03:43:33.032Z,14.30
2023-05-01T03:46:04.266Z,14.40
2023-05-01T03:48:31.302Z,14.40
2023-05-01T03:50:58.170Z,14.40
2023-05-01T03:53:25.206Z,14.40
2023-05-01T03:55:51.958Z,14.40
2023-05-01T03:58:19.082Z,14.40
2023-05-01T04:00:45.762Z,14.30
2023-05-01T04:03:13.011Z,14.40
2023-05-01T04:05:45.938Z,14.40
2023-05-01T04:08:13.010Z,14.40
2023-05-01T04:10:40.792Z,14.30
2023-05-01T04:13:07.486Z,14.30
2023-05-01T04:15:35.078Z,14.40
2023-05-01T04:18:02.063Z,14.30
2023-05-01T04:20:28.823Z,14.40
2023-05-01T04:22:55.437Z,14.30
2023-05-01T04:25:22.072Z,14.30
2023-05-01T04:27:53.828Z,14.30
2023-05-01T04:30:20.631Z,14.30
2023-05-01T04:32:47.276Z,14.30
2023-05-01T04:35:13.991Z,14.20
2023-05-01T04:37:43.539Z,14.30
2023-05-01T04:40:11.808Z,14.30
2023-05-01T04:42:39.312Z,14.30
2023-05-01T04:45:09.401Z,14.30
2023-05-01T04:47:38.862Z,14.30
2023-05-01T04:50:06.169Z,14.30
2023-05-01T04:52:32.858Z,14.30
2023-05-01T04:55:02.308Z,14.20
2023-05-01T04:57:31.112Z,14.20
2023-05-01T04:59:59.020Z,14.30
2023-05-01T05:02:26.071Z,14.20
2023-05-01T05:04:56.649Z,14.20
2023-05-01T05:07:23.968Z,14.30
2023-05-01T05:10:09.395Z,14.30
2023-05-01T05:12:36.183Z,14.30
2023-05-01T05:15:03.190Z,14.30
2023-05-01T05:17:30.815Z,14.30
2023-05-01T05:19:58.004Z,14.30
2023-05-01T05:22:26.008Z,14.30
2023-05-01T05:25:21.785Z,14.30
2023-05-01T05:27:49.052Z,14.30
2023-05-01T05:30:16.350Z,14.30
2023-05-01T05:32:44.942Z,14.20
2023-05-01T05:35:11.922Z,14.20
2023-05-01T05:37:38.545Z,14.30
2023-05-01T05:40:06.433Z,14.30
2023-05-01T05:42:44.476Z,14.30
2023-05-01T05:45:11.723Z,14.40
2023-05-01T05:47:39.186Z,14.40
2023-05-01T05:50:07.323Z,14.40
2023-05-01T05:52:33.996Z,14.40
2023-05-01T05:55:01.416Z,14.40
2023-05-01T05:57:30.532Z,14.40
2023-05-01T05:59:57.806Z,14.40
2023-05-01T06:02:25.803Z,14.40
2023-05-01T06:04:52.523Z,14.30
2023-05-01T06:07:22.910Z,14.30
2023-05-01T06:09:49.573Z,14.40
2023-05-01T06:12:16.260Z,14.40
2023-05-01T06:14:43.198Z,14.40
2023-05-01T06:17:09.900Z,14.40
2023-05-01T06:19:37.417Z,14.40
2023-05-01T06:22:08.244Z,14.40
2023-05-01T06:24:41.370Z,14.40
2023-05-01T06:27:09.861Z,14.40
2023-05-01T06:29:36.795Z,14.20
2023-05-01T06:32:04.301Z,14.30
2023-05-01T06:34:31.980Z,14.30
2023-05-01T06:36:59.286Z,14.50
2023-05-01T06:39:26.994Z,14.50
2023-05-01T06:41:53.692Z,14.50
2023-05-01T06:44:32.683Z,14.50
2023-05-01T06:47:01.674Z,14.50
2023-05-01T06:49:28.488Z,14.60
2023-05-01T06:51:55.219Z,14.60
2023-05-01T06:54:21.875Z,14.60
2023-05-01T06:56:48.538Z,14.60
2023-05-01T06:59:15.146Z,14.60
2023-05-01T07:01:41.788Z,14.70
2023-05-01T07:04:09.632Z,14.70
2023-05-01T07:06:36.461Z,14.80
2023-05-01T07:09:04.281Z,14.80
2023-05-01T07:11:32.511Z,14.90
2023-05-01T07:14:00.846Z,15.00
2023-05-01T07:16:27.745Z,15.00
2023-05-01T07:18:54.449Z,14.90
2023-05-01T07:21:21.276Z,14.90
2023-05-01T07:23:47.860Z,14.90
2023-05-01T07:26:14.559Z,15.10
2023-05-01T07:28:41.807Z,15.00
2023-05-01T07:31:10.404Z,14.90
2023-05-01T07:33:37.384Z,15.00
2023-05-01T07:36:04.579Z,15.10
2023-05-01T07:38:31.242Z,15.20
2023-05-01T07:40:57.899Z,15.20
2023-05-01T07:43:24.522Z,15.20
2023-05-01T07:45:58.864Z,15.20
2023-05-01T07:48:26.953Z,15.20
2023-05-01T07:50:54.848Z,15.20
2023-05-01T07:53:24.272Z,15.30
2023-05-01T07:55:50.981Z,15.30
2023-05-01T07:58:17.664Z,15.40
2023-05-01T08:00:45.277Z,15.40
2023-05-01T08:03:12.917Z,15.50
2023-05-01T08:05:41.382Z,15.50
2023-05-01T08:08:09.180Z,15.40
2023-05-01T08:10:36.092Z,15.30
2023-05-01T08:13:02.825Z,15.50
2023-05-01T08:15:29.416Z,15.50
2023-05-01T08:17:58.234Z,15.60
2023-05-01T08:20:25.214Z,15.70
2023-05-01T08:22:51.789Z,15.70
2023-05-01T08:25:18.386Z,15.70
2023-05-01T08:27:45.152Z,15.60
2023-05-01T08:30:12.065Z,15.60
2023-05-01T08:32:38.707Z,15.60
2023-05-01T08:35:05.673Z,15.70
2023-05-01T08:37:32.338Z,15.70
2023-05-01T08:39:59.100Z,15.70
2023-05-01T08:42:26.295Z,15.40
2023-05-01T08:44:55.473Z,15.30
2023-05-01T08:47:22.518Z,15.30
2023-05-01T08:49:52.186Z,15.50
2023-05-01T08:52:22.100Z,15.50
2023-05-01T08:54:52.373Z,15.70
2023-05-01T08:57:20.610Z,15.80
2023-05-01T08:59:50.718Z,15.90
2023-05-01T09:02:17.923Z,16.00
2023-05-01T09:04:45.795Z,16.10
2023-05-01T09:07:12.747Z,16.00
2023-05-01T09:09:39.506Z,15.90
2023-05-01T09:12:18.719Z,15.80
2023-05-01T09:14:45.470Z,16.00
2023-05-01T09:17:13.431Z,16.20
2023-05-01T09:19:40.962Z,16.40
2023-05-01T09:22:09.261Z,16.50
2023-05-01T09:24:36.000Z,16.60
2023-05-01T09:27:02.751Z,16.70
2023-05-01T09:29:40.485Z,16.70
2023-05-01T09:32:20.668Z,16.80
2023-05-01T09:34:49.141Z,16.90
2023-05-01T09:37:30.390Z,16.90
2023-05-01T09:40:07.707Z,17.00
2023-05-01T09:42:37.917Z,17.00
2023-05-01T09:45:07.137Z,16.90
2023-05-01T09:47:34.406Z,17.00
2023-05-01T09:50:01.229Z,16.90
2023-05-01T09:52:28.871Z,17.00
2023-05-01T09:55:15.105Z,17.10
2023-05-01T09:57:43.034Z,17.20
2023-05-01T10:00:15.338Z,17.10
2023-05-01T10:02:46.854Z,17.10
2023-05-01T10:05:14.086Z,17.10
2023-05-01T10:08:00.844Z,17.10
2023-05-01T10:10:27.851Z,17.10
2023-05-01T10:12:54.862Z,17.10
2023-05-01T10:15:25.993Z,17.20
2023-05-01T10:17:54.528Z,17.30
2023-05-01T10:20:21.610Z,17.20
2023-05-01T10:22:49.110Z,17.20
2023-05-01T10:25:17.870Z,17.20
2023-05-01T10:27:44.770Z,17.20
2023-05-01T10:30:11.702Z,17.20
2023-05-01T10:32:40.999Z,17.20
2023-05-01T10:35:15.604Z,17.30
2023-05-01T10:37:56.278Z,17.40
2023-05-01T10:40:48.926Z,17.40
2023-05-01T10:43:30.748Z,17.30
2023-05-01T10:46:09.699Z,17.50
2023-05-01T10:48:44.844Z,17.50
2023-05-01T10:51:17.852Z,17.40
2023-05-01T10:53:46.052Z,17.50
2023-05-01T10:56:23.746Z,17.60
2023-05-01T10:58:53.369Z,17.60
2023-05-01T11:01:32.163Z,17.60
2023-05-01T11:04:19.862Z,17.60
2023-05-01T11:07:01.998Z,17.70
2023-05-01T11:09:46.235Z,17.70
2023-05-01T11:12:16.403Z,17.70
2023-05-01T11:15:03.508Z,17.80
2023-05-01T11:17:42.954Z,17.70
2023-05-01T11:20:33.312Z,17.80
2023-05-01T11:23:00.063Z,17.60
2023-05-01T11:25:31.315Z,17.70
2023-05-01T11:28:02.573Z,17.80
2023-05-01T11:30:39.110Z,18.00
2023-05-01T11:33:09.824Z,18.00
2023-05-01T11:35:39.122Z,17.90
2023-05-01T11:38:06.006Z,17.70
2023-05-01T11:40:34.489Z,17.90
2023-05-01T11:43:08.337Z,18.10
2023-05-01T11:45:36.867Z,18.10
2023-05-01T11:48:05.093Z,18.20
2023-05-01T11:50:38.975Z,18.30
2023-05-01T11:53:11.867Z,18.10
2023-05-01T11:55:40.008Z,18.10
2023-05-01T11:58:06.951Z,18.30
2023-05-01T12:00:37.276Z,18.30
2023-05-01T12:03:06.499Z,18.30
2023-05-01T12:05:37.114Z,18.50
2023-05-01T12:08:11.766Z,18.40
2023-05-01T12:10:40.606Z,18.30
2023-05-01T12:13:08.700Z,18.10
2023-05-01T12:15:37.283Z,18.10
2023-05-01T12:18:05.697Z,18.30
2023-05-01T12:20:39.472Z,18.20
2023-05-01T12:23:07.523Z,18.20
2023-05-01T12:25:35.029Z,17.90
2023-05-01T12:28:15.410Z,18.10
2023-05-01T12:30:43.416Z,18.30
2023-05-01T12:33:15.645Z,18.40
2023-05-01T12:35:47.134Z,18.20
2023-05-01T12:38:22.872Z,18.20
2023-05-01T12:40:57.787Z,18.20
2023-05-01T12:43:31.638Z,18.30
2023-05-01T12:45:59.325Z,18.70
2023-05-01T12:48:26.688Z,18.50
2023-05-01T12:50:57.065Z,18.10
2023-05-01T12:53:25.401Z,18.40
2023-05-01T12:55:54.124Z,18.60
2023-05-01T12:58:21.419Z,18.30
2023-05-01T13:00:50.297Z,18.20
2023-05-01T13:03:24.016Z,18.20
2023-05-01T13:05:58.899Z,18.10
2023-05-01T13:08:27.627Z,18.00
2023-05-01T13:10:57.141Z,18.00
2023-05-01T13:13:29.453Z,18.10
2023-05-01T13:16:05.175Z,18.30
2023-05-01T13:18:33.433Z,18.20
2023-05-01T13:21:10.995Z,18.00
2023-05-01T13:23:38.782Z,17.90
2023-05-01T13:26:10.600Z,18.30
2023-05-01T13:28:45.051Z,18.50
2023-05-01T13:31:13.869Z,18.80
2023-05-01T13:33:45.094Z,18.80
2023-05-01T13:36:25.331Z,18.90
2023-05-01T13:38:55.824Z,19.30
2023-05-01T13:41:25.447Z,18.90
2023-05-01T13:43:53.856Z,18.50
2023-05-01T13:46:22.957Z,18.40
2023-05-01T13:48:49.900Z,18.30
2023-05-01T13:51:24.800Z,18.50
2023-05-01T13:53:53.017Z,18.40
2023-05-01T13:56:19.663Z,18.20
2023-05-01T13:58:46.582Z,18.10
2023-05-01T14:01:19.526Z,18.20
2023-05-01T14:03:46.720Z,18.20
2023-05-01T14:06:15.836Z,18.30
2023-05-01T14:08:43.236Z,18.40
2023-05-01T14:11:11.613Z,18.60
2023-05-01T14:13:43.005Z,18.40
2023-05-01T14:16:18.786Z,18.20
2023-05-01T14:18:46.398Z,18.20
2023-05-01T14:21:17.545Z,18.60
2023-05-01T14:23:44.303Z,18.60
2023-05-01T14:26:16.760Z,18.70
2023-05-01T14:28:44.596Z,18.50
2023-05-01T14:31:17.429Z,18.40
2023-05-01T14:33:44.478Z,18.50
2023-05-01T14:36:12.407Z,18.50
2023-05-01T14:38:40.383Z,18.30
2023-05-01T14:41:08.839Z,18.30
2023-05-01T14:43:40.753Z,18.20
2023-05-01T14:46:07.507Z,18.20
2023-05-01T14:48:37.156Z,18.20
2023-05-01T14:51:12.232Z,18.20
2023-05-01T14:53:42.407Z,18.10
2023-05-01T14:56:09.104Z,18.10
2023-05-01T14:58:35.907Z,18.30
2023-05-01T15:01:02.803Z,18.40
2023-05-01T15:03:29.920Z,18.50
2023-05-01T15:05:57.374Z,18.60
2023-05-01T15:08:24.448Z,18.60
2023-05-01T15:10:54.177Z,18.80
2023-05-01T15:13:21.261Z,18.60
2023-05-01T15:15:48.134Z,18.70
2023-05-01T15:18:15.097Z,18.60
2023-05-01T15:20:41.758Z,18.50
2023-05-01T15:23:08.560Z,18.70
2023-05-01T15:25:35.527Z,18.70
2023-05-01T15:28:03.405Z,18.60
2023-05-01T15:30:30.132Z,18.60
2023-05-01T15:32:57.191Z,18.50
2023-05-01T15:35:24.122Z,18.40
2023-05-01T15:37:51.224Z,18.50
2023-05-01T15:40:17.987Z,18.50
2023-05-01T15:42:47.874Z,18.50
2023-05-01T15:45:14.716Z,18.40
2023-05-01T15:47:41.390Z,18.30
2023-05-01T15:50:10.709Z,18.30
2023-05-01T15:52:38.182Z,18.30
2023-05-01T15:55:05.946Z,18.20
2023-05-01T15:57:34.530Z,18.20
2023-05-01T16:00:01.740Z,18.20
2023-05-01T16:02:32.674Z,18.10
2023-05-01T16:05:00.072Z,18.10
2023-05-01T16:07:31.652Z,18.10
2023-05-01T16:09:58.815Z,18.20
2023-05-01T16:12:28.443Z,18.20
2023-05-01T16:14:55.194Z,18.20
2023-05-01T16:17:22.431Z,18.30
2023-05-01T16:19:49.404Z,18.40
2023-05-01T16:22:16.219Z,18.30
2023-05-01T16:24:42.926Z,18.20
2023-05-01T16:27:13.099Z,18.30
2023-05-01T16:29:39.935Z,18.30
2023-05-01T16:32:11.161Z,18.40
2023-05-01T16:34:40.003Z,18.30
2023-05-01T16:37:06.667Z,18.30
2023-05-01T16:39:38.346Z,18.40
2023-05-01T16:42:05.040Z,18.40
2023-05-01T16:44:34.927Z,18.30
2023-05-01T16:47:03.281Z,18.30
2023-05-01T16:49:29.969Z,18.30
2023-05-01T16:51:58.149Z,18.30
2023-05-01T16:54:31.768Z,18.30
2023-05-01T16:56:59.061Z,18.30
2023-05-01T16:59:25.759Z,18.30
2023-05-01T17:01:52.608Z,18.30
2023-05-01T17:04:19.623Z,18.30
2023-05-01T17:06:46.335Z,18.30
2023-05-01T17:09:13.004Z,18.30
2023-05-01T17:11:56.365Z,18.30
2023-05-01T17:14:23.193Z,18.30
2023-05-01T17:16:50.495Z,18.30
2023-05-01T17:19:17.300Z,18.30
2023-05-01T17:21:44.048Z,18.30
2023-05-01T17:24:12.804Z,18.30
2023-05-01T17:26:39.402Z,18.40
2023-05-01T17:29:06.029Z,18.30
2023-05-01T17:31:32.736Z,18.30
2023-05-01T17:33:59.322Z,18.30
2023-05-01T17:36:27.007Z,18.30
2023-05-01T17:38:54.577Z,18.40
2023-05-01T17:41:22.400Z,18.40
2023-05-01T17:43:49.308Z,18.30
2023-05-01T17:46:16.895Z,18.40
2023-05-01T17:48:44.038Z,18.40
2023-05-01T17:51:10.753Z,18.40
2023-05-01T17:53:37.779Z,18.40
2023-05-01T17:56:04.486Z,18.40
2023-05-01T17:58:31.222Z,18.40
2023-05-01T18:00:58.971Z,18.40
2023-05-01T18:03:25.963Z,18.40
2023-05-01T18:05:52.698Z,18.40
2023-05-01T18:08:19.300Z,18.40
2023-05-01T18:10:45.904Z,18.40
2023-05-01T18:13:12.857Z,18.40
2023-05-01T18:15:39.552Z,18.40
2023-05-01T18:18:06.325Z,18.40
2023-05-01T18:20:33.602Z,18.40
2023-05-01T18:23:00.974Z,18.40
2023-05-01T18:25:28.105Z,18.40
2023-05-01T18:27:56.142Z,18.40
2023-05-01T18:30:23.731Z,18.40
2023-05-01T18:32:50.550Z,18.40
2023-05-01T18:35:18.472Z,18.40
2023-05-01T18:37:45.178Z,18.40
2023-05-01T18:40:12.523Z,18.40
2023-05-01T18:42:41.532Z,18.40
2023-05-01T18:45:09.816Z,18.40
2023-05-01T18:47:36.449Z,18.40
2023-05-01T18:50:03.191Z,18.40
2023-05-01T18:52:30.303Z,18.40
2023-05-01T18:54:57.133Z,18.40
2023-05-01T18:57:23.967Z,18.40
2023-05-01T18:59:50.582Z,18.40
2023-05-01T19:02:17.182Z,18.40
2023-05-01T19:04:56.578Z,18.40
2023-05-01T19:07:25.771Z,18.40
2023-05-01T19:09:52.376Z,18.40
2023-05-01T19:12:19.008Z,18.40
2023-05-01T19:14:45.684Z,18.40
2023-05-01T19:17:12.264Z,18.40
2023-05-01T19:19:38.885Z,18.40
2023-05-01T19:22:06.208Z,18.50
2023-05-01T19:24:32.977Z,18.40
2023-05-01T19:26:59.556Z,18.40
2023-05-01T19:29:26.131Z,18.40
2023-05-01T19:31:53.021Z,18.40
2023-05-01T19:34:20.648Z,18.40
2023-05-01T19:36:47.372Z,18.40
2023-05-01T19:39:14.022Z,18.40
2023-05-01T19:41:40.676Z,18.30
2023-05-01T19:44:07.894Z,18.30
2023-05-01T19:46:34.523Z,18.30
2023-05-01T19:49:01.095Z,18.30
2023-05-01T19:51:28.152Z,18.30
2023-05-01T19:53:54.893Z,18.20
2023-05-01T19:56:21.487Z,18.20
2023-05-01T19:58:48.068Z,18.30
2023-05-01T20:01:14.912Z,18.30
2023-05-01T20:03:41.623Z,18.40
2023-05-01T20:06:09.037Z,18.40
2023-05-01T20:08:35.681Z,18.40
2023-05-01T20:11:02.393Z,18.40
2023-05-01T20:13:29.451Z,18.30
2023-05-01T20:15:56.264Z,18.10
2023-05-01T20:18:22.975Z,18.10
2023-05-01T20:20:49.693Z,18.20
2023-05-01T20:23:18.862Z,18.30
2023-05-01T20:25:47.663Z,18.30
2023-05-01T20:28:17.660Z,18.30
2023-05-01T20:30:45.655Z,18.30
2023-05-01T20:33:13.782Z,18.30
2023-05-01T20:35:40.609Z,18.40
2023-05-01T20:38:07.438Z,18.30
2023-05-01T20:40:36.068Z,18.30
2023-05-01T20:43:02.789Z,18.40
2023-05-01T20:45:29.463Z,18.30
2023-05-01T20:47:56.505Z,18.30
2023-05-01T20:50:23.872Z,18.40
2023-05-01T20:52:51.380Z,18.40
2023-05-01T20:55:18.455Z,18.30
2023-05-01T20:57:45.056Z,18.10
2023-05-01T21:00:12.176Z,18.20
2023-05-01T21:02:40.409Z,18.20
2023-05-01T21:05:10.181Z,18.20
2023-05-01T21:07:40.540Z,18.20
2023-05-01T21:10:09.830Z,18.20
2023-05-01T21:12:37.320Z,18.20
2023-05-01T21:15:04.706Z,18.20
2023-05-01T21:17:36.189Z,18.10
2023-05-01T21:20:09.983Z,18.10
2023-05-01T21:22:39.303Z,18.30
2023-05-01T21:25:07.130Z,18.20
2023-05-01T21:27:34.087Z,18.10
2023-05-01T21:30:02.101Z,18.00
2023-05-01T21:32:34.623Z,18.10
2023-05-01T21:35:01.817Z,18.00
2023-05-01T21:37:29.061Z,17.90
2023-05-01T21:39:58.881Z,17.90
2023-05-01T21:42:34.713Z,18.00
2023-05-01T21:45:06.821Z,17.90
2023-05-01T21:48:00.041Z,17.80
2023-05-01T21:50:31.042Z,18.00
2023-05-01T21:52:59.340Z,18.10
2023-05-01T21:55:26.314Z,18.00
2023-05-01T21:57:55.676Z,18.00
2023-05-01T22:00:22.365Z,18.00
2023-05-01T22:02:50.913Z,17.90
2023-05-01T22:05:20.186Z,18.00
2023-05-01T22:07:47.274Z,18.00
2023-05-01T22:10:18.460Z,18.00
2023-05-01T22:12:45.995Z,18.10
2023-05-01T22:15:15.339Z,18.10
2023-05-01T22:17:43.262Z,18.10
2023-05-01T22:20:13.386Z,18.10
2023-05-01T22:22:41.356Z,18.00
2023-05-01T22:25:09.151Z,17.90
2023-05-01T22:27:36.263Z,17.90
2023-05-01T22:30:06.517Z,18.00
2023-05-01T22:32:33.433Z,17.90
2023-05-01T22:35:00.100Z,18.00
2023-05-01T22:37:26.820Z,17.90
2023-05-01T22:39:59.015Z,17.80
2023-05-01T22:42:26.079Z,17.90
2023-05-01T22:44:52.837Z,18.00
2023-05-01T22:47:19.454Z,17.90
2023-05-01T22:49:48.631Z,17.70
2023-05-01T22:52:17.205Z,17.70
2023-05-01T22:54:43.809Z,17.60
2023-05-01T22:57:10.429Z,17.60
2023-05-01T22:59:37.568Z,17.60
2023-05-01T23:02:04.885Z,17.70
2023-05-01T23:04:39.376Z,18.00
2023-05-01T23:07:05.966Z,17.90
2023-05-01T23:09:35.783Z,18.00
2023-05-01T23:12:03.752Z,17.90
2023-05-01T23:14:30.365Z,17.80
2023-05-01T23:16:57.395Z,17.90
2023-05-01T23:19:25.106Z,18.10
2023-05-01T23:22:04.652Z,18.10
2023-05-01T23:24:52.100Z,17.90
2023-05-01T23:27:19.916Z,17.90
2023-05-01T23:29:56.656Z,17.70
2023-05-01T23:32:26.868Z,17.80
2023-05-01T23:34:55.146Z,17.70
2023-05-01T23:37:25.260Z,17.60
2023-05-01T23:39:53.688Z,17.60
2023-05-01T23:42:23.380Z,17.60
2023-05-01T23:44:50.809Z,17.60
2023-05-01T23:47:20.774Z,17.70
2023-05-01T23:49:47.968Z,17.70
2023-05-01T23:52:15.636Z,17.70
2023-05-01T23:54:42.210Z,17.60
2023-05-01T23:57:08.827Z,17.80
2023-05-01T23:59:37.712Z,17.70
